Time,TemperatureF,DewpointF,PressureIn,WindDirection,WindDirectionDegrees,WindSpeedMPH,WindSpeedGustMPH,Humidity,HourlyPrecipIn,Conditions,Clouds,dailyrainin,SoftwareType,DateUTC
2013-08-03 00:02:00,76.5,76.2,29.92,South,180,2.2,-999.0,99,-99.99,,,0.00,Acu-Link.com,2013-08-03 04:02:00,
2013-08-03 00:17:00,77.0,76.7,29.93,SW,225,0.0,-999.0,99,-99.99,,,0.00,Acu-Link.com,2013-08-03 04:17:00,
2013-08-03 00:32:00,76.8,76.5,29.93,SSW,202,1.7,-999.0,99,-99.99,,,0.00,Acu-Link.com,2013-08-03 04:32:00,
2013-08-03 00:48:00,76.6,76.3,29.93,SW,225,0.0,-999.0,99,-99.99,,,0.00,Acu-Link.com,2013-08-03 04:48:00,
2013-08-03 01:03:00,76.8,76.5,29.93,SW,225,0.0,-999.0,99,-99.99,,,0.00,Acu-Link.com,2013-08-03 05:03:00,
2013-08-03 01:18:00,77.0,76.7,29.93,South,180,0.0,-999.0,99,-99.99,,,0.00,Acu-Link.com,2013-08-03 05:18:00,
2013-08-03 01:33:00,77.0,76.7,29.93,West,270,0.0,-999.0,99,-99.99,,,0.00,Acu-Link.com,2013-08-03 05:33:00,
2013-08-03 01:48:00,77.2,76.9,29.93,SSE,157,0.0,-999.0,99,-99.99,,,0.00,Acu-Link.com,2013-08-03 05:48:00,
2013-08-03 02:03:00,77.2,76.9,29.92,SSW,202,0.0,-999.0,99,-99.99,,,0.00,Acu-Link.com,2013-08-03 06:03:00,
2013-08-03 02:18:00,77.2,76.9,29.92,South,180,2.7,-999.0,99,-99.99,,,0.00,Acu-Link.com,2013-08-03 06:18:00,
2013-08-03 02:33:00,77.4,77.1,29.93,WSW,247,0.0,-999.0,99,-99.99,,,0.00,Acu-Link.com,2013-08-03 06:33:00,
2013-08-03 02:48:00,77.4,77.1,29.92,South,180,1.1,-999.0,99,-99.99,,,0.00,Acu-Link.com,2013-08-03 06:48:00,
2013-08-03 03:04:00,77.4,77.1,29.92,SW,225,1.1,-999.0,99,-99.99,,,0.00,Acu-Link.com,2013-08-03 07:04:00,
2013-08-03 03:19:00,77.5,77.2,29.91,SSE,157,0.0,-999.0,99,-99.99,,,0.00,Acu-Link.com,2013-08-03 07:19:00,
2013-08-03 03:34:00,77.5,77.2,29.91,SSW,202,0.0,-999.0,99,-99.99,,,0.00,Acu-Link.com,2013-08-03 07:34:00,
2013-08-03 03:49:00,77.5,77.2,29.90,South,180,0.0,-999.0,99,-99.99,,,0.00,Acu-Link.com,2013-08-03 07:49:00,
2013-08-03 04:04:00,77.5,77.2,29.91,SSW,202,0.0,-999.0,99,-99.99,,,0.00,Acu-Link.com,2013-08-03 08:04:00,
2013-08-03 04:19:00,77.5,77.2,29.91,South,180,0.0,-999.0,99,-99.99,,,0.00,Acu-Link.com,2013-08-03 08:19:00,
2013-08-03 04:35:00,77.5,77.2,29.90,South,180,0.0,-999.0,99,-99.99,,,0.00,Acu-Link.com,2013-08-03 08:35:00,
2013-08-03 04:50:00,77.5,77.2,29.91,North,0,0.0,-999.0,99,-99.99,,,0.00,Acu-Link.com,2013-08-03 08:50:00,
2013-08-03 05:05:00,77.5,77.2,29.91,SW,225,0.0,-999.0,99,-99.99,,,0.00,Acu-Link.com,2013-08-03 09:05:00,
2013-08-03 05:20:00,77.5,77.2,29.91,South,180,0.0,-999.0,99,-99.99,,,0.00,Acu-Link.com,2013-08-03 09:20:00,
2013-08-03 05:35:00,77.5,77.2,29.91,South,180,0.0,-999.0,99,-99.99,,,0.00,Acu-Link.com,2013-08-03 09:35:00,
2013-08-03 05:50:00,77.5,77.2,29.92,South,180,0.0,-999.0,99,-99.99,,,0.00,Acu-Link.com,2013-08-03 09:50:00,
2013-08-03 06:05:00,77.5,77.2,29.92,East,90,0.0,-999.0,99,-99.99,,,0.00,Acu-Link.com,2013-08-03 10:05:00,
2013-08-03 06:21:00,77.5,77.2,29.93,NNW,337,0.0,-999.0,99,-99.99,,,0.00,Acu-Link.com,2013-08-03 10:21:00,
2013-08-03 06:36:00,77.7,77.4,29.94,East,90,0.0,-999.0,99,-99.99,,,0.00,Acu-Link.com,2013-08-03 10:36:00,
2013-08-03 06:51:00,78.4,78.1,29.95,East,90,0.0,-999.0,99,-99.99,,,0.00,Acu-Link.com,2013-08-03 10:51:00,
2013-08-03 07:06:00,78.6,78.3,29.95,SSE,157,0.0,-999.0,99,-99.99,,,0.00,Acu-Link.com,2013-08-03 11:06:00,
2013-08-03 07:21:00,78.6,78.3,29.97,South,180,3.2,-999.0,99,-99.99,,,0.00,Acu-Link.com,2013-08-03 11:21:00,
2013-08-03 07:51:00,79.2,78.9,29.96,WNW,292,2.7,-999.0,99,-99.99,,,0.00,Acu-Link.com,2013-08-03 11:51:00,
2013-08-03 08:06:00,79.2,78.9,29.97,WSW,247,2.2,-999.0,99,-99.99,,,0.00,Acu-Link.com,2013-08-03 12:06:00,
2013-08-03 08:37:00,79.7,79.4,29.99,SSW,202,1.7,-999.0,99,-99.99,,,0.00,Acu-Link.com,2013-08-03 12:37:00,
2013-08-03 08:52:00,79.9,79.6,29.98,South,180,2.7,-999.0,99,-99.99,,,0.00,Acu-Link.com,2013-08-03 12:52:00,
2013-08-03 09:07:00,80.2,79.9,29.98,SSE,157,3.2,-999.0,99,-99.99,,,0.00,Acu-Link.com,2013-08-03 13:07:00,
2013-08-03 09:22:00,79.2,78.9,29.98,South,180,2.7,-999.0,99,-99.99,,,0.00,Acu-Link.com,2013-08-03 13:22:00,
2013-08-03 09:37:00,79.3,79.0,29.98,SSW,202,4.2,-999.0,99,-99.99,,,0.00,Acu-Link.com,2013-08-03 13:37:00,
2013-08-03 09:52:00,79.2,78.9,29.98,West,270,2.2,-999.0,99,-99.99,,,0.00,Acu-Link.com,2013-08-03 13:52:00,
2013-08-03 10:07:00,79.3,79.0,29.98,South,180,1.7,-999.0,99,-99.99,,,0.00,Acu-Link.com,2013-08-03 14:07:00,
2013-08-03 10:22:00,79.3,79.0,29.98,ESE,112,2.2,-999.0,99,-99.99,,,0.00,Acu-Link.com,2013-08-03 14:22:00,
2013-08-03 10:37:00,79.3,79.0,29.98,SW,225,2.7,-999.0,99,-99.99,,,0.00,Acu-Link.com,2013-08-03 14:37:00,
2013-08-03 10:53:00,79.5,79.2,29.99,SW,225,1.1,-999.0,99,-99.99,,,0.00,Acu-Link.com,2013-08-03 14:53:00,
2013-08-03 11:08:00,79.9,79.6,29.99,West,270,0.0,-999.0,99,-99.99,,,0.00,Acu-Link.com,2013-08-03 15:08:00,
2013-08-03 11:23:00,80.2,79.9,29.99,NNW,337,3.2,-999.0,99,-99.99,,,0.00,Acu-Link.com,2013-08-03 15:23:00,
2013-08-03 11:38:00,80.4,80.1,29.99,South,180,2.7,-999.0,99,-99.99,,,0.00,Acu-Link.com,2013-08-03 15:38:00,
2013-08-03 11:53:00,80.8,80.5,29.99,WSW,247,2.2,-999.0,99,-99.99,,,0.00,Acu-Link.com,2013-08-03 15:53:00,
2013-08-03 12:08:00,80.8,80.5,29.98,SSW,202,2.2,-999.0,99,-99.99,,,0.00,Acu-Link.com,2013-08-03 16:08:00,
2013-08-03 12:23:00,81.3,81.0,29.99,South,180,2.2,-999.0,99,-99.99,,,0.00,Acu-Link.com,2013-08-03 16:23:00,
2013-08-03 12:38:00,81.5,81.2,30.00,SE,135,2.2,-999.0,99,-99.99,,,0.00,Acu-Link.com,2013-08-03 16:38:00,
2013-08-03 12:53:00,82.0,81.7,30.00,East,90,4.2,-999.0,99,-99.99,,,0.00,Acu-Link.com,2013-08-03 16:53:00,
2013-08-03 13:09:00,82.4,82.1,29.99,East,90,4.2,-999.0,99,-99.99,,,0.00,Acu-Link.com,2013-08-03 17:09:00,
2013-08-03 13:24:00,82.9,82.6,29.99,SSW,202,2.2,-999.0,99,-99.99,,,0.00,Acu-Link.com,2013-08-03 17:24:00,
2013-08-03 13:39:00,83.1,82.8,29.99,East,90,3.2,-999.0,99,-99.99,,,0.00,Acu-Link.com,2013-08-03 17:39:00,
2013-08-03 13:54:00,83.3,83.0,29.99,NNE,22,2.7,-999.0,99,-99.99,,,0.00,Acu-Link.com,2013-08-03 17:54:00,
2013-08-03 14:09:00,83.7,83.4,29.98,ESE,112,3.2,-999.0,99,-99.99,,,0.00,Acu-Link.com,2013-08-03 18:09:00,
2013-08-03 14:24:00,84.4,84.1,29.98,NE,45,1.7,-999.0,99,-99.99,,,0.00,Acu-Link.com,2013-08-03 18:24:00,
2013-08-03 14:39:00,84.6,84.3,29.97,South,180,1.7,-999.0,99,-99.99,,,0.00,Acu-Link.com,2013-08-03 18:39:00,
2013-08-03 14:54:00,83.8,83.5,29.98,West,270,6.8,-999.0,99,-99.99,,,0.00,Acu-Link.com,2013-08-03 18:54:00,
2013-08-03 15:09:00,77.7,77.4,29.99,WNW,292,2.7,-999.0,99,-99.99,,,0.00,Acu-Link.com,2013-08-03 19:09:00,
2013-08-03 15:25:00,73.6,73.3,30.01,SE,135,3.7,-999.0,99,-99.99,,,0.12,Acu-Link.com,2013-08-03 19:25:00,
2013-08-03 15:40:00,74.1,73.8,29.98,East,90,3.2,-999.0,99,-99.99,,,0.26,Acu-Link.com,2013-08-03 19:40:00,
2013-08-03 15:55:00,73.2,72.9,29.98,SSW,202,3.7,-999.0,99,-99.99,,,0.26,Acu-Link.com,2013-08-03 19:55:00,
2013-08-03 16:10:00,72.9,72.6,29.97,SSW,202,1.7,-999.0,99,-99.99,,,0.27,Acu-Link.com,2013-08-03 20:10:00,
2013-08-03 16:25:00,73.2,72.9,29.97,West,270,2.2,-999.0,99,-99.99,,,0.27,Acu-Link.com,2013-08-03 20:25:00,
2013-08-03 16:40:00,73.4,73.1,29.97,SSE,157,3.2,-999.0,99,-99.99,,,0.29,Acu-Link.com,2013-08-03 20:40:00,
2013-08-03 16:55:00,73.8,73.5,29.98,SSW,202,2.7,-999.0,99,-99.99,,,0.29,Acu-Link.com,2013-08-03 20:55:00,
2013-08-03 17:10:00,73.8,73.5,29.99,South,180,2.2,-999.0,99,-99.99,,,0.29,Acu-Link.com,2013-08-03 21:10:00,
2013-08-03 17:25:00,74.3,74.0,29.98,South,180,0.0,-999.0,99,-99.99,,,0.30,Acu-Link.com,2013-08-03 21:25:00,
2013-08-03 17:40:00,74.5,74.2,29.98,ESE,112,0.0,-999.0,99,-99.99,,,0.30,Acu-Link.com,2013-08-03 21:40:00,
2013-08-03 17:55:00,75.2,74.9,29.98,SW,225,0.0,-999.0,99,-99.99,,,0.31,Acu-Link.com,2013-08-03 21:55:00,
2013-08-03 18:11:00,75.4,75.1,29.97,SW,225,0.0,-999.0,99,-99.99,,,0.31,Acu-Link.com,2013-08-03 22:11:00,
2013-08-03 18:26:00,75.4,75.1,29.96,SW,225,0.0,-999.0,99,-99.99,,,0.32,Acu-Link.com,2013-08-03 22:26:00,
2013-08-03 18:41:00,75.0,74.7,29.96,South,180,0.0,-999.0,99,-99.99,,,0.32,Acu-Link.com,2013-08-03 22:41:00,
2013-08-03 19:11:00,75.0,74.7,29.96,South,180,0.0,-999.0,99,-99.99,,,0.32,Acu-Link.com,2013-08-03 23:11:00,
2013-08-03 19:26:00,75.4,75.1,29.97,SW,225,0.0,-999.0,99,-99.99,,,0.32,Acu-Link.com,2013-08-03 23:26:00,
2013-08-03 19:41:00,75.6,75.3,29.97,SW,225,0.0,-999.0,99,-99.99,,,0.32,Acu-Link.com,2013-08-03 23:41:00,
2013-08-03 20:27:00,75.6,75.3,29.97,SSW,202,0.0,-999.0,99,-99.99,,,0.32,Acu-Link.com,2013-08-04 00:27:00,
2013-08-03 20:42:00,75.6,75.3,29.97,WNW,292,0.0,-999.0,99,-99.99,,,0.32,Acu-Link.com,2013-08-04 00:42:00,
2013-08-03 20:57:00,75.6,75.3,29.96,SSW,202,0.0,-999.0,99,-99.99,,,0.32,Acu-Link.com,2013-08-04 00:57:00,
2013-08-03 21:12:00,75.6,75.3,29.96,SW,225,0.0,-999.0,99,-99.99,,,0.32,Acu-Link.com,2013-08-04 01:12:00,
2013-08-03 21:27:00,75.6,75.3,29.97,SSW,202,0.0,-999.0,99,-99.99,,,0.32,Acu-Link.com,2013-08-04 01:27:00,
2013-08-03 21:42:00,75.6,75.3,29.98,South,180,0.0,-999.0,99,-99.99,,,0.32,Acu-Link.com,2013-08-04 01:42:00,
2013-08-03 21:57:00,75.9,75.6,29.97,East,90,0.0,-999.0,99,-99.99,,,0.32,Acu-Link.com,2013-08-04 01:57:00,
2013-08-03 22:12:00,75.7,75.4,29.99,South,180,0.0,-999.0,99,-99.99,,,0.32,Acu-Link.com,2013-08-04 02:12:00,
2013-08-03 22:28:00,75.7,75.4,30.00,South,180,0.0,-999.0,99,-99.99,,,0.32,Acu-Link.com,2013-08-04 02:28:00,
2013-08-03 22:43:00,75.7,75.4,30.00,WSW,247,0.0,-999.0,99,-99.99,,,0.32,Acu-Link.com,2013-08-04 02:43:00,
2013-08-03 22:58:00,75.7,75.4,30.00,South,180,0.0,-999.0,99,-99.99,,,0.32,Acu-Link.com,2013-08-04 02:58:00,
2013-08-03 23:13:00,75.9,75.6,29.99,West,270,0.0,-999.0,99,-99.99,,,0.32,Acu-Link.com,2013-08-04 03:13:00,
2013-08-03 23:28:00,75.9,75.6,29.99,South,180,0.0,-999.0,99,-99.99,,,0.32,Acu-Link.com,2013-08-04 03:28:00,
2013-08-03 23:43:00,75.7,75.4,29.98,SSW,202,0.0,-999.0,99,-99.99,,,0.32,Acu-Link.com,2013-08-04 03:43:00,
2013-08-03 23:58:00,75.6,75.3,29.98,WSW,247,0.0,-999.0,99,-99.99,,,0.32,Acu-Link.com,2013-08-04 03:58:00,